sensor_id;sensor_type;location;lat;lon;timestamp;P1;durP1;ratioP1;P2;durP2;ratioP2
64820;SDS011;51256;55.654;37.264;2022-09-09T00:03:34;5.65;;;3.20;;
64820;SDS011;51256;55.654;37.264;2022-09-09T00:06:29;6.05;;;3.30;;
64820;SDS011;51256;55.654;37.264;2022-09-09T00:09:13;4.88;;;2.67;;
64820;SDS011;51256;55.654;37.264;2022-09-09T00:11:51;5.00;;;2.88;;
64820;SDS011;51256;55.654;37.264;2022-09-09T00:17:12;4.82;;;2.90;;
64820;SDS011;51256;55.654;37.264;2022-09-09T00:22:22;5.18;;;2.83;;
64820;SDS011;51256;55.654;37.264;2022-09-09T00:32:36;8.68;;;3.22;;
64820;SDS011;51256;55.654;37.264;2022-09-09T00:37:55;6.90;;;3.38;;
64820;SDS011;51256;55.654;37.264;2022-09-09T00:40:32;7.85;;;3.40;;
64820;SDS011;51256;55.654;37.264;2022-09-09T00:51:26;8.10;;;3.50;;
64820;SDS011;51256;55.654;37.264;2022-09-09T00:54:12;5.88;;;3.40;;
64820;SDS011;51256;55.654;37.264;2022-09-09T01:00:00;6.72;;;3.22;;
64820;SDS011;51256;55.654;37.264;2022-09-09T01:02:25;6.80;;;3.05;;
64820;SDS011;51256;55.654;37.264;2022-09-09T01:04:57;5.88;;;3.30;;
64820;SDS011;51256;55.654;37.264;2022-09-09T01:07:30;6.00;;;3.35;;
64820;SDS011;51256;55.654;37.264;2022-09-09T01:09:57;6.40;;;3.63;;
64820;SDS011;51256;55.654;37.264;2022-09-09T01:15:10;6.00;;;3.83;;
64820;SDS011;51256;55.654;37.264;2022-09-09T01:20:24;7.75;;;4.00;;
64820;SDS011;51256;55.654;37.264;2022-09-09T01:28:29;6.40;;;3.78;;
64820;SDS011;51256;55.654;37.264;2022-09-09T01:30:56;7.32;;;4.20;;
64820;SDS011;51256;55.654;37.264;2022-09-09T01:33:22;10.60;;;4.07;;
64820;SDS011;51256;55.654;37.264;2022-09-09T01:38:19;9.07;;;4.03;;
64820;SDS011;51256;55.654;37.264;2022-09-09T01:40:46;8.68;;;4.20;;
64820;SDS011;51256;55.654;37.264;2022-09-09T01:43:12;6.82;;;3.90;;
64820;SDS011;51256;55.654;37.264;2022-09-09T01:45:38;7.65;;;4.30;;
64820;SDS011;51256;55.654;37.264;2022-09-09T01:48:06;6.75;;;4.00;;
64820;SDS011;51256;55.654;37.264;2022-09-09T01:50:32;7.95;;;4.65;;
64820;SDS011;51256;55.654;37.264;2022-09-09T01:52:57;11.30;;;3.75;;
64820;SDS011;51256;55.654;37.264;2022-09-09T01:55:28;8.75;;;4.10;;
64820;SDS011;51256;55.654;37.264;2022-09-09T02:00:37;6.20;;;3.80;;
64820;SDS011;51256;55.654;37.264;2022-09-09T02:05:52;7.10;;;4.00;;
64820;SDS011;51256;55.654;37.264;2022-09-09T02:08:46;9.15;;;4.55;;
64820;SDS011;51256;55.654;37.264;2022-09-09T02:11:14;7.93;;;4.00;;
64820;SDS011;51256;55.654;37.264;2022-09-09T02:13:39;7.38;;;3.60;;
64820;SDS011;51256;55.654;37.264;2022-09-09T02:16:30;6.85;;;3.80;;
64820;SDS011;51256;55.654;37.264;2022-09-09T02:21:53;6.13;;;3.33;;
64820;SDS011;51256;55.654;37.264;2022-09-09T02:24:21;7.80;;;3.60;;
64820;SDS011;51256;55.654;37.264;2022-09-09T02:26:47;6.07;;;3.67;;
64820;SDS011;51256;55.654;37.264;2022-09-09T02:29:21;6.45;;;3.42;;
64820;SDS011;51256;55.654;37.264;2022-09-09T02:31:50;6.13;;;3.75;;
64820;SDS011;51256;55.654;37.264;2022-09-09T02:34:18;5.30;;;3.40;;
64820;SDS011;51256;55.654;37.264;2022-09-09T02:36:46;5.65;;;3.33;;
64820;SDS011;51256;55.654;37.264;2022-09-09T02:39:14;5.22;;;2.90;;
64820;SDS011;51256;55.654;37.264;2022-09-09T02:41:40;7.30;;;3.33;;
64820;SDS011;51256;55.654;37.264;2022-09-09T02:44:10;6.35;;;3.20;;
64820;SDS011;51256;55.654;37.264;2022-09-09T02:52:30;5.50;;;3.13;;
64820;SDS011;51256;55.654;37.264;2022-09-09T02:54:59;4.72;;;2.90;;
64820;SDS011;51256;55.654;37.264;2022-09-09T02:57:32;7.45;;;3.42;;
64820;SDS011;51256;55.654;37.264;2022-09-09T02:59:59;4.72;;;3.13;;
64820;SDS011;51256;55.654;37.264;2022-09-09T03:02:25;5.88;;;3.20;;
64820;SDS011;51256;55.654;37.264;2022-09-09T03:04:51;7.97;;;2.95;;
64820;SDS011;51256;55.654;37.264;2022-09-09T03:07:20;5.93;;;2.83;;
64820;SDS011;51256;55.654;37.264;2022-09-09T03:09:45;5.82;;;2.97;;
64820;SDS011;51256;55.654;37.264;2022-09-09T03:12:11;4.10;;;2.60;;
64820;SDS011;51256;55.654;37.264;2022-09-09T03:14:37;5.78;;;3.00;;
64820;SDS011;51256;55.654;37.264;2022-09-09T03:17:03;5.65;;;2.95;;
64820;SDS011;51256;55.654;37.264;2022-09-09T03:19:30;4.70;;;2.78;;
64820;SDS011;51256;55.654;37.264;2022-09-09T03:21:56;7.75;;;2.65;;
64820;SDS011;51256;55.654;37.264;2022-09-09T03:24:25;4.20;;;2.50;;
64820;SDS011;51256;55.654;37.264;2022-09-09T03:26:51;5.20;;;3.28;;
64820;SDS011;51256;55.654;37.264;2022-09-09T03:29:16;7.45;;;2.53;;
64820;SDS011;51256;55.654;37.264;2022-09-09T03:31:43;7.95;;;2.70;;
64820;SDS011;51256;55.654;37.264;2022-09-09T03:34:09;5.85;;;2.78;;
64820;SDS011;51256;55.654;37.264;2022-09-09T03:36:36;5.05;;;2.90;;
64820;SDS011;51256;55.654;37.264;2022-09-09T03:39:02;3.95;;;2.38;;
64820;SDS011;51256;55.654;37.264;2022-09-09T03:41:28;3.00;;;2.08;;
64820;SDS011;51256;55.654;37.264;2022-09-09T03:43:54;4.53;;;2.35;;
64820;SDS011;51256;55.654;37.264;2022-09-09T03:46:21;5.82;;;3.35;;
64820;SDS011;51256;55.654;37.264;2022-09-09T03:48:47;5.20;;;2.40;;
64820;SDS011;51256;55.654;37.264;2022-09-09T03:51:13;6.03;;;2.72;;
64820;SDS011;51256;55.654;37.264;2022-09-09T03:53:39;7.65;;;2.70;;
64820;SDS011;51256;55.654;37.264;2022-09-09T03:56:05;7.07;;;2.60;;
64820;SDS011;51256;55.654;37.264;2022-09-09T03:58:32;5.65;;;2.70;;
64820;SDS011;51256;55.654;37.264;2022-09-09T04:01:01;6.05;;;2.72;;
64820;SDS011;51256;55.654;37.264;2022-09-09T04:03:29;6.50;;;2.95;;
64820;SDS011;51256;55.654;37.264;2022-09-09T04:05:56;3.35;;;2.13;;
64820;SDS011;51256;55.654;37.264;2022-09-09T04:08:23;5.07;;;2.50;;
64820;SDS011;51256;55.654;37.264;2022-09-09T04:10:52;7.57;;;3.17;;
64820;SDS011;51256;55.654;37.264;2022-09-09T04:13:18;9.23;;;2.90;;
64820;SDS011;51256;55.654;37.264;2022-09-09T04:15:54;8.52;;;4.68;;
64820;SDS011;51256;55.654;37.264;2022-09-09T04:18:22;5.15;;;2.92;;
64820;SDS011;51256;55.654;37.264;2022-09-09T04:20:49;5.47;;;3.10;;
64820;SDS011;51256;55.654;37.264;2022-09-09T04:23:16;5.07;;;3.03;;
64820;SDS011;51256;55.654;37.264;2022-09-09T04:25:47;7.22;;;3.30;;
64820;SDS011;51256;55.654;37.264;2022-09-09T04:28:14;6.20;;;3.03;;
64820;SDS011;51256;55.654;37.264;2022-09-09T04:30:42;7.00;;;3.40;;
64820;SDS011;51256;55.654;37.264;2022-09-09T04:33:07;4.38;;;2.88;;
64820;SDS011;51256;55.654;37.264;2022-09-09T04:35:34;5.47;;;3.33;;
64820;SDS011;51256;55.654;37.264;2022-09-09T04:38:01;9.07;;;3.63;;
64820;SDS011;51256;55.654;37.264;2022-09-09T04:40:28;5.75;;;3.10;;
64820;SDS011;51256;55.654;37.264;2022-09-09T04:42:54;8.55;;;3.10;;
64820;SDS011;51256;55.654;37.264;2022-09-09T04:45:20;5.63;;;3.08;;
64820;SDS011;51256;55.654;37.264;2022-09-09T04:47:46;5.93;;;2.92;;
64820;SDS011;51256;55.654;37.264;2022-09-09T04:50:11;5.93;;;3.35;;
64820;SDS011;51256;55.654;37.264;2022-09-09T04:52:37;7.47;;;3.53;;
64820;SDS011;51256;55.654;37.264;2022-09-09T04:55:02;7.78;;;3.75;;
64820;SDS011;51256;55.654;37.264;2022-09-09T04:57:29;5.43;;;3.20;;
64820;SDS011;51256;55.654;37.264;2022-09-09T04:59:56;7.93;;;3.90;;
64820;SDS011;51256;55.654;37.264;2022-09-09T05:02:22;8.55;;;3.25;;
64820;SDS011;51256;55.654;37.264;2022-09-09T05:04:48;11.93;;;3.28;;
64820;SDS011;51256;55.654;37.264;2022-09-09T05:07:14;4.80;;;2.75;;
64820;SDS011;51256;55.654;37.264;2022-09-09T05:09:40;5.93;;;2.50;;
64820;SDS011;51256;55.654;37.264;2022-09-09T05:12:05;5.38;;;2.72;;
64820;SDS011;51256;55.654;37.264;2022-09-09T05:14:31;6.28;;;2.40;;
64820;SDS011;51256;55.654;37.264;2022-09-09T05:16:57;4.65;;;2.60;;
64820;SDS011;51256;55.654;37.264;2022-09-09T05:19:23;5.63;;;2.45;;
64820;SDS011;51256;55.654;37.264;2022-09-09T05:21:48;5.20;;;2.88;;
64820;SDS011;51256;55.654;37.264;2022-09-09T05:24:15;4.35;;;2.60;;
64820;SDS011;51256;55.654;37.264;2022-09-09T05:26:40;6.18;;;2.63;;
64820;SDS011;51256;55.654;37.264;2022-09-09T05:29:06;3.53;;;2.13;;
64820;SDS011;51256;55.654;37.264;2022-09-09T05:31:33;4.78;;;2.42;;
64820;SDS011;51256;55.654;37.264;2022-09-09T05:33:58;4.05;;;1.92;;
64820;SDS011;51256;55.654;37.264;2022-09-09T05:36:24;2.95;;;1.73;;
64820;SDS011;51256;55.654;37.264;2022-09-09T05:38:49;3.45;;;1.80;;
64820;SDS011;51256;55.654;37.264;2022-09-09T05:41:15;5.28;;;2.05;;
64820;SDS011;51256;55.654;37.264;2022-09-09T05:43:42;4.50;;;2.10;;
64820;SDS011;51256;55.654;37.264;2022-09-09T05:46:16;7.07;;;1.60;;
64820;SDS011;51256;55.654;37.264;2022-09-09T05:48:46;4.93;;;2.15;;
64820;SDS011;51256;55.654;37.264;2022-09-09T05:51:14;8.02;;;2.00;;
64820;SDS011;51256;55.654;37.264;2022-09-09T05:53:42;3.33;;;1.50;;
64820;SDS011;51256;55.654;37.264;2022-09-09T05:56:12;2.85;;;1.50;;
64820;SDS011;51256;55.654;37.264;2022-09-09T05:58:45;6.05;;;1.23;;
64820;SDS011;51256;55.654;37.264;2022-09-09T06:03:44;4.93;;;1.50;;
64820;SDS011;51256;55.654;37.264;2022-09-09T06:06:11;3.38;;;1.45;;
64820;SDS011;51256;55.654;37.264;2022-09-09T06:08:41;3.97;;;1.42;;
64820;SDS011;51256;55.654;37.264;2022-09-09T06:11:17;5.65;;;1.50;;
64820;SDS011;51256;55.654;37.264;2022-09-09T06:13:56;4.00;;;1.42;;
64820;SDS011;51256;55.654;37.264;2022-09-09T06:16:22;5.85;;;1.65;;
64820;SDS011;51256;55.654;37.264;2022-09-09T06:18:52;2.45;;;1.42;;
64820;SDS011;51256;55.654;37.264;2022-09-09T06:21:22;5.43;;;1.83;;
64820;SDS011;51256;55.654;37.264;2022-09-09T06:23:49;2.00;;;1.08;;
64820;SDS011;51256;55.654;37.264;2022-09-09T06:26:31;1.63;;;0.90;;
64820;SDS011;51256;55.654;37.264;2022-09-09T06:28:58;2.67;;;1.42;;
64820;SDS011;51256;55.654;37.264;2022-09-09T06:31:25;4.28;;;0.98;;
64820;SDS011;51256;55.654;37.264;2022-09-09T06:36:43;3.65;;;1.40;;
64820;SDS011;51256;55.654;37.264;2022-09-09T06:39:12;8.32;;;1.45;;
64820;SDS011;51256;55.654;37.264;2022-09-09T06:44:29;4.00;;;1.42;;
64820;SDS011;51256;55.654;37.264;2022-09-09T06:47:06;4.15;;;0.90;;
64820;SDS011;51256;55.654;37.264;2022-09-09T06:49:34;3.25;;;1.00;;
64820;SDS011;51256;55.654;37.264;2022-09-09T06:52:00;2.30;;;1.20;;
64820;SDS011;51256;55.654;37.264;2022-09-09T06:54:25;3.72;;;1.30;;
64820;SDS011;51256;55.654;37.264;2022-09-09T06:56:51;1.98;;;1.10;;
64820;SDS011;51256;55.654;37.264;2022-09-09T06:59:16;2.58;;;1.00;;
64820;SDS011;51256;55.654;37.264;2022-09-09T07:01:42;4.47;;;1.35;;
64820;SDS011;51256;55.654;37.264;2022-09-09T07:04:19;1.40;;;0.70;;
64820;SDS011;51256;55.654;37.264;2022-09-09T07:06:45;1.17;;;0.63;;
64820;SDS011;51256;55.654;37.264;2022-09-09T07:09:15;2.80;;;0.90;;
64820;SDS011;51256;55.654;37.264;2022-09-09T07:11:48;5.88;;;1.10;;
64820;SDS011;51256;55.654;37.264;2022-09-09T07:14:15;1.85;;;0.85;;
64820;SDS011;51256;55.654;37.264;2022-09-09T07:16:42;1.58;;;0.77;;
64820;SDS011;51256;55.654;37.264;2022-09-09T07:19:08;4.75;;;1.15;;
64820;SDS011;51256;55.654;37.264;2022-09-09T07:21:34;3.22;;;1.35;;
64820;SDS011;51256;55.654;37.264;2022-09-09T07:24:09;3.67;;;1.25;;
64820;SDS011;51256;55.654;37.264;2022-09-09T07:26:36;8.77;;;1.17;;
64820;SDS011;51256;55.654;37.264;2022-09-09T07:29:02;5.47;;;1.10;;
64820;SDS011;51256;55.654;37.264;2022-09-09T07:31:33;2.55;;;0.90;;
64820;SDS011;51256;55.654;37.264;2022-09-09T07:34:01;6.90;;;0.98;;
64820;SDS011;51256;55.654;37.264;2022-09-09T07:36:32;2.17;;;0.82;;
64820;SDS011;51256;55.654;37.264;2022-09-09T07:39:00;5.63;;;1.05;;
64820;SDS011;51256;55.654;37.264;2022-09-09T07:41:33;6.15;;;1.02;;
64820;SDS011;51256;55.654;37.264;2022-09-09T07:44:04;5.55;;;0.70;;
64820;SDS011;51256;55.654;37.264;2022-09-09T07:46:40;2.00;;;0.82;;
64820;SDS011;51256;55.654;37.264;2022-09-09T07:49:06;2.42;;;1.00;;
64820;SDS011;51256;55.654;37.264;2022-09-09T07:51:34;4.00;;;1.20;;
64820;SDS011;51256;55.654;37.264;2022-09-09T07:54:03;3.90;;;1.00;;
64820;SDS011;51256;55.654;37.264;2022-09-09T07:56:31;3.65;;;0.63;;
64820;SDS011;51256;55.654;37.264;2022-09-09T07:58:56;1.85;;;0.80;;
64820;SDS011;51256;55.654;37.264;2022-09-09T08:01:30;4.72;;;0.90;;
64820;SDS011;51256;55.654;37.264;2022-09-09T08:04:01;3.72;;;1.20;;
64820;SDS011;51256;55.654;37.264;2022-09-09T08:06:45;3.53;;;0.90;;
64820;SDS011;51256;55.654;37.264;2022-09-09T08:09:22;3.47;;;1.00;;
64820;SDS011;51256;55.654;37.264;2022-09-09T08:11:53;1.73;;;0.82;;
64820;SDS011;51256;55.654;37.264;2022-09-09T08:14:25;3.03;;;0.90;;
64820;SDS011;51256;55.654;37.264;2022-09-09T08:16:50;1.92;;;0.95;;
64820;SDS011;51256;55.654;37.264;2022-09-09T08:19:18;2.00;;;0.90;;
64820;SDS011;51256;55.654;37.264;2022-09-09T08:21:44;4.63;;;1.70;;
64820;SDS011;51256;55.654;37.264;2022-09-09T08:24:10;5.32;;;1.40;;
64820;SDS011;51256;55.654;37.264;2022-09-09T08:26:38;5.13;;;1.60;;
64820;SDS011;51256;55.654;37.264;2022-09-09T08:29:07;5.65;;;1.80;;
64820;SDS011;51256;55.654;37.264;2022-09-09T08:31:37;6.65;;;1.48;;
64820;SDS011;51256;55.654;37.264;2022-09-09T08:34:10;1.92;;;1.00;;
64820;SDS011;51256;55.654;37.264;2022-09-09T08:36:46;6.13;;;1.95;;
64820;SDS011;51256;55.654;37.264;2022-09-09T08:39:14;2.97;;;1.42;;
64820;SDS011;51256;55.654;37.264;2022-09-09T08:55:41;4.20;;;1.13;;
64820;SDS011;51256;55.654;37.264;2022-09-09T08:58:12;1.40;;;0.90;;
64820;SDS011;51256;55.654;37.264;2022-09-09T09:01:24;2.42;;;1.00;;
64820;SDS011;51256;55.654;37.264;2022-09-09T09:11:44;3.08;;;1.00;;
64820;SDS011;51256;55.654;37.264;2022-09-09T09:16:56;4.82;;;1.60;;
64820;SDS011;51256;55.654;37.264;2022-09-09T09:19:25;2.38;;;1.20;;
64820;SDS011;51256;55.654;37.264;2022-09-09T09:27:31;5.93;;;1.00;;
64820;SDS011;51256;55.654;37.264;2022-09-09T09:29:56;2.17;;;1.02;;
64820;SDS011;51256;55.654;37.264;2022-09-09T09:32:24;4.93;;;1.20;;
64820;SDS011;51256;55.654;37.264;2022-09-09T09:34:55;4.93;;;1.40;;
64820;SDS011;51256;55.654;37.264;2022-09-09T09:37:30;5.40;;;1.20;;
64820;SDS011;51256;55.654;37.264;2022-09-09T09:40:13;2.85;;;1.20;;
64820;SDS011;51256;55.654;37.264;2022-09-09T09:42:48;5.63;;;1.38;;
64820;SDS011;51256;55.654;37.264;2022-09-09T09:45:28;2.70;;;1.20;;
64820;SDS011;51256;55.654;37.264;2022-09-09T09:48:04;7.57;;;1.20;;
64820;SDS011;51256;55.654;37.264;2022-09-09T09:50:31;4.32;;;1.25;;
64820;SDS011;51256;55.654;37.264;2022-09-09T09:53:04;5.43;;;2.10;;
64820;SDS011;51256;55.654;37.264;2022-09-09T09:55:44;4.22;;;1.60;;
64820;SDS011;51256;55.654;37.264;2022-09-09T09:58:19;3.40;;;1.48;;
64820;SDS011;51256;55.654;37.264;2022-09-09T10:00:52;2.03;;;1.05;;
64820;SDS011;51256;55.654;37.264;2022-09-09T10:03:29;2.00;;;1.00;;
64820;SDS011;51256;55.654;37.264;2022-09-09T10:05:56;2.20;;;1.15;;
64820;SDS011;51256;55.654;37.264;2022-09-09T10:08:26;2.65;;;1.00;;
64820;SDS011;51256;55.654;37.264;2022-09-09T10:19:21;10.02;;;2.55;;
64820;SDS011;51256;55.654;37.264;2022-09-09T10:33:12;2.10;;;0.90;;
64820;SDS011;51256;55.654;37.264;2022-09-09T10:54:00;1.40;;;0.80;;
64820;SDS011;51256;55.654;37.264;2022-09-09T10:56:27;1.70;;;0.90;;
64820;SDS011;51256;55.654;37.264;2022-09-09T10:58:56;2.20;;;0.90;;
64820;SDS011;51256;55.654;37.264;2022-09-09T11:01:25;3.10;;;0.95;;
64820;SDS011;51256;55.654;37.264;2022-09-09T11:04:01;2.97;;;1.20;;
64820;SDS011;51256;55.654;37.264;2022-09-09T11:06:37;1.77;;;0.98;;
64820;SDS011;51256;55.654;37.264;2022-09-09T11:09:08;5.40;;;1.00;;
64820;SDS011;51256;55.654;37.264;2022-09-09T11:11:51;6.70;;;0.80;;
64820;SDS011;51256;55.654;37.264;2022-09-09T11:14:33;3.42;;;0.85;;
64820;SDS011;51256;55.654;37.264;2022-09-09T11:17:33;3.05;;;0.80;;
64820;SDS011;51256;55.654;37.264;2022-09-09T11:20:17;3.20;;;0.90;;
64820;SDS011;51256;55.654;37.264;2022-09-09T11:22:45;1.75;;;0.98;;
64820;SDS011;51256;55.654;37.264;2022-09-09T11:36:23;2.33;;;1.10;;
64820;SDS011;51256;55.654;37.264;2022-09-09T11:38:50;1.67;;;0.90;;
64820;SDS011;51256;55.654;37.264;2022-09-09T11:41:17;2.22;;;0.98;;
64820;SDS011;51256;55.654;37.264;2022-09-09T11:43:49;1.83;;;1.00;;
64820;SDS011;51256;55.654;37.264;2022-09-09T11:46:17;1.98;;;0.80;;
64820;SDS011;51256;55.654;37.264;2022-09-09T11:48:57;1.88;;;1.10;;
64820;SDS011;51256;55.654;37.264;2022-09-09T11:53:59;2.95;;;0.90;;
64820;SDS011;51256;55.654;37.264;2022-09-09T11:56:32;1.90;;;0.90;;
64820;SDS011;51256;55.654;37.264;2022-09-09T11:59:06;2.50;;;1.00;;
64820;SDS011;51256;55.654;37.264;2022-09-09T12:01:45;3.25;;;1.10;;
64820;SDS011;51256;55.654;37.264;2022-09-09T12:07:01;2.88;;;0.90;;
64820;SDS011;51256;55.654;37.264;2022-09-09T12:09:47;1.42;;;0.88;;
64820;SDS011;51256;55.654;37.264;2022-09-09T12:17:43;2.15;;;0.85;;
64820;SDS011;51256;55.654;37.264;2022-09-09T12:20:20;3.03;;;0.95;;
64820;SDS011;51256;55.654;37.264;2022-09-09T12:23:32;2.75;;;1.10;;
64820;SDS011;51256;55.654;37.264;2022-09-09T12:33:43;2.78;;;1.15;;
64820;SDS011;51256;55.654;37.264;2022-09-09T12:36:29;3.28;;;0.80;;
64820;SDS011;51256;55.654;37.264;2022-09-09T12:38:58;2.00;;;0.95;;
64820;SDS011;51256;55.654;37.264;2022-09-09T12:41:54;4.88;;;1.20;;
64820;SDS011;51256;55.654;37.264;2022-09-09T12:44:21;5.68;;;1.38;;
64820;SDS011;51256;55.654;37.264;2022-09-09T12:46:48;4.53;;;0.93;;
64820;SDS011;51256;55.654;37.264;2022-09-09T12:49:24;2.75;;;0.98;;
64820;SDS011;51256;55.654;37.264;2022-09-09T12:52:23;2.42;;;1.08;;
64820;SDS011;51256;55.654;37.264;2022-09-09T12:54:55;2.15;;;1.10;;
64820;SDS011;51256;55.654;37.264;2022-09-09T12:57:22;4.03;;;1.20;;
64820;SDS011;51256;55.654;37.264;2022-09-09T12:59:52;4.22;;;1.20;;
64820;SDS011;51256;55.654;37.264;2022-09-09T13:02:28;2.58;;;1.00;;
64820;SDS011;51256;55.654;37.264;2022-09-09T13:04:55;3.40;;;1.00;;
64820;SDS011;51256;55.654;37.264;2022-09-09T13:07:32;2.22;;;1.20;;
64820;SDS011;51256;55.654;37.264;2022-09-09T13:09:57;3.05;;;1.10;;
64820;SDS011;51256;55.654;37.264;2022-09-09T13:12:23;4.53;;;1.30;;
64820;SDS011;51256;55.654;37.264;2022-09-09T13:14:51;2.22;;;1.27;;
64820;SDS011;51256;55.654;37.264;2022-09-09T13:17:22;2.55;;;1.40;;
64820;SDS011;51256;55.654;37.264;2022-09-09T13:19:50;4.78;;;1.48;;
64820;SDS011;51256;55.654;37.264;2022-09-09T13:24:58;2.88;;;1.48;;
64820;SDS011;51256;55.654;37.264;2022-09-09T13:27:58;3.85;;;1.35;;
64820;SDS011;51256;55.654;37.264;2022-09-09T13:35:53;1.77;;;1.00;;
64820;SDS011;51256;55.654;37.264;2022-09-09T13:38:24;5.03;;;1.45;;
64820;SDS011;51256;55.654;37.264;2022-09-09T13:40:53;2.30;;;1.10;;
64820;SDS011;51256;55.654;37.264;2022-09-09T13:43:24;3.65;;;1.30;;
64820;SDS011;51256;55.654;37.264;2022-09-09T13:48:25;2.88;;;1.00;;
64820;SDS011;51256;55.654;37.264;2022-09-09T13:50:58;2.03;;;0.90;;
64820;SDS011;51256;55.654;37.264;2022-09-09T13:53:25;5.00;;;1.08;;
64820;SDS011;51256;55.654;37.264;2022-09-09T13:55:51;2.05;;;1.10;;
64820;SDS011;51256;55.654;37.264;2022-09-09T13:58:18;2.00;;;1.05;;
64820;SDS011;51256;55.654;37.264;2022-09-09T14:00:44;9.43;;;1.38;;
64820;SDS011;51256;55.654;37.264;2022-09-09T14:03:11;4.15;;;1.35;;
64820;SDS011;51256;55.654;37.264;2022-09-09T14:05:36;2.63;;;1.20;;
64820;SDS011;51256;55.654;37.264;2022-09-09T14:08:06;6.32;;;1.35;;
64820;SDS011;51256;55.654;37.264;2022-09-09T14:10:34;3.65;;;1.30;;
64820;SDS011;51256;55.654;37.264;2022-09-09T14:13:02;2.75;;;1.30;;
64820;SDS011;51256;55.654;37.264;2022-09-09T14:15:28;2.05;;;1.20;;
64820;SDS011;51256;55.654;37.264;2022-09-09T14:17:54;3.80;;;1.25;;
64820;SDS011;51256;55.654;37.264;2022-09-09T14:20:20;2.65;;;1.60;;
64820;SDS011;51256;55.654;37.264;2022-09-09T14:22:46;4.07;;;1.20;;
64820;SDS011;51256;55.654;37.264;2022-09-09T14:25:11;2.72;;;1.50;;
64820;SDS011;51256;55.654;37.264;2022-09-09T14:27:40;2.87;;;1.40;;
64820;SDS011;51256;55.654;37.264;2022-09-09T14:30:07;5.50;;;1.20;;
64820;SDS011;51256;55.654;37.264;2022-09-09T14:32:34;4.63;;;2.03;;
64820;SDS011;51256;55.654;37.264;2022-09-09T14:35:00;5.65;;;2.10;;
64820;SDS011;51256;55.654;37.264;2022-09-09T14:37:26;6.68;;;2.30;;
64820;SDS011;51256;55.654;37.264;2022-09-09T14:39:52;4.65;;;1.88;;
64820;SDS011;51256;55.654;37.264;2022-09-09T14:42:19;10.23;;;2.90;;
64820;SDS011;51256;55.654;37.264;2022-09-09T14:44:44;5.53;;;1.77;;
64820;SDS011;51256;55.654;37.264;2022-09-09T14:47:10;6.75;;;2.55;;
64820;SDS011;51256;55.654;37.264;2022-09-09T14:49:36;3.40;;;2.10;;
64820;SDS011;51256;55.654;37.264;2022-09-09T14:52:02;2.83;;;1.50;;
64820;SDS011;51256;55.654;37.264;2022-09-09T14:54:31;4.23;;;1.40;;
64820;SDS011;51256;55.654;37.264;2022-09-09T14:56:57;2.38;;;1.30;;
64820;SDS011;51256;55.654;37.264;2022-09-09T14:59:23;2.13;;;1.30;;
64820;SDS011;51256;55.654;37.264;2022-09-09T15:01:49;3.28;;;1.50;;
64820;SDS011;51256;55.654;37.264;2022-09-09T15:04:14;3.30;;;1.52;;
64820;SDS011;51256;55.654;37.264;2022-09-09T15:06:41;1.90;;;1.30;;
64820;SDS011;51256;55.654;37.264;2022-09-09T15:09:09;3.85;;;1.52;;
64820;SDS011;51256;55.654;37.264;2022-09-09T15:11:36;3.92;;;1.58;;
64820;SDS011;51256;55.654;37.264;2022-09-09T15:14:03;2.70;;;1.52;;
64820;SDS011;51256;55.654;37.264;2022-09-09T15:16:29;4.82;;;1.50;;
64820;SDS011;51256;55.654;37.264;2022-09-09T15:18:57;3.00;;;1.27;;
64820;SDS011;51256;55.654;37.264;2022-09-09T15:21:25;2.20;;;1.25;;
64820;SDS011;51256;55.654;37.264;2022-09-09T15:23:53;3.85;;;1.95;;
64820;SDS011;51256;55.654;37.264;2022-09-09T15:26:19;2.40;;;1.30;;
64820;SDS011;51256;55.654;37.264;2022-09-09T15:28:46;3.05;;;1.45;;
64820;SDS011;51256;55.654;37.264;2022-09-09T15:31:14;3.17;;;1.40;;
64820;SDS011;51256;55.654;37.264;2022-09-09T15:33:46;4.28;;;1.48;;
64820;SDS011;51256;55.654;37.264;2022-09-09T15:38:48;3.35;;;1.80;;
64820;SDS011;51256;55.654;37.264;2022-09-09T15:41:14;3.40;;;1.90;;
64820;SDS011;51256;55.654;37.264;2022-09-09T15:43:44;5.35;;;2.05;;
64820;SDS011;51256;55.654;37.264;2022-09-09T15:48:42;10.27;;;4.10;;
64820;SDS011;51256;55.654;37.264;2022-09-09T15:51:09;5.57;;;3.00;;
64820;SDS011;51256;55.654;37.264;2022-09-09T15:53:36;4.93;;;2.10;;
64820;SDS011;51256;55.654;37.264;2022-09-09T15:56:04;6.65;;;3.22;;
64820;SDS011;51256;55.654;37.264;2022-09-09T15:58:33;7.65;;;3.55;;
64820;SDS011;51256;55.654;37.264;2022-09-09T16:01:04;6.25;;;3.40;;
64820;SDS011;51256;55.654;37.264;2022-09-09T16:03:34;7.35;;;3.33;;
64820;SDS011;51256;55.654;37.264;2022-09-09T16:06:01;5.00;;;2.50;;
64820;SDS011;51256;55.654;37.264;2022-09-09T16:08:31;12.30;;;4.10;;
64820;SDS011;51256;55.654;37.264;2022-09-09T16:11:03;6.55;;;3.15;;
64820;SDS011;51256;55.654;37.264;2022-09-09T16:13:36;10.68;;;3.60;;
64820;SDS011;51256;55.654;37.264;2022-09-09T16:16:02;10.23;;;3.88;;
64820;SDS011;51256;55.654;37.264;2022-09-09T16:21:12;11.30;;;3.15;;
64820;SDS011;51256;55.654;37.264;2022-09-09T16:23:42;9.95;;;3.47;;
64820;SDS011;51256;55.654;37.264;2022-09-09T16:26:12;9.30;;;4.10;;
64820;SDS011;51256;55.654;37.264;2022-09-09T16:28:40;7.70;;;3.30;;
64820;SDS011;51256;55.654;37.264;2022-09-09T16:31:07;12.98;;;4.07;;
64820;SDS011;51256;55.654;37.264;2022-09-09T16:33:35;9.25;;;3.30;;
64820;SDS011;51256;55.654;37.264;2022-09-09T16:36:07;8.43;;;3.13;;
64820;SDS011;51256;55.654;37.264;2022-09-09T16:38:33;7.55;;;2.40;;
64820;SDS011;51256;55.654;37.264;2022-09-09T16:41:00;6.65;;;2.83;;
64820;SDS011;51256;55.654;37.264;2022-09-09T16:43:26;11.00;;;3.70;;
64820;SDS011;51256;55.654;37.264;2022-09-09T16:45:52;17.33;;;4.30;;
64820;SDS011;51256;55.654;37.264;2022-09-09T16:48:18;12.98;;;3.08;;
64820;SDS011;51256;55.654;37.264;2022-09-09T16:50:43;12.57;;;4.40;;
64820;SDS011;51256;55.654;37.264;2022-09-09T16:53:09;19.67;;;6.47;;
64820;SDS011;51256;55.654;37.264;2022-09-09T16:55:39;29.48;;;8.05;;
64820;SDS011;51256;55.654;37.264;2022-09-09T16:58:06;25.40;;;8.45;;
64820;SDS011;51256;55.654;37.264;2022-09-09T17:00:33;36.53;;;9.75;;
64820;SDS011;51256;55.654;37.264;2022-09-09T17:02:59;34.45;;;9.43;;
64820;SDS011;51256;55.654;37.264;2022-09-09T17:05:25;34.45;;;11.65;;
64820;SDS011;51256;55.654;37.264;2022-09-09T17:07:50;43.40;;;11.20;;
64820;SDS011;51256;55.654;37.264;2022-09-09T17:10:16;36.55;;;11.05;;
64820;SDS011;51256;55.654;37.264;2022-09-09T17:12:42;50.63;;;11.02;;
64820;SDS011;51256;55.654;37.264;2022-09-09T17:15:08;38.92;;;10.55;;
64820;SDS011;51256;55.654;37.264;2022-09-09T17:17:34;37.70;;;10.88;;
64820;SDS011;51256;55.654;37.264;2022-09-09T17:20:00;33.72;;;10.73;;
64820;SDS011;51256;55.654;37.264;2022-09-09T17:22:27;32.92;;;10.60;;
64820;SDS011;51256;55.654;37.264;2022-09-09T17:24:52;35.08;;;10.70;;
64820;SDS011;51256;55.654;37.264;2022-09-09T17:27:18;30.15;;;10.52;;
64820;SDS011;51256;55.654;37.264;2022-09-09T17:29:43;37.88;;;8.00;;
64820;SDS011;51256;55.654;37.264;2022-09-09T17:32:09;52.13;;;17.08;;
64820;SDS011;51256;55.654;37.264;2022-09-09T17:34:35;59.45;;;30.27;;
64820;SDS011;51256;55.654;37.264;2022-09-09T17:37:00;29.33;;;11.23;;
64820;SDS011;51256;55.654;37.264;2022-09-09T17:39:26;13.98;;;5.18;;
64820;SDS011;51256;55.654;37.264;2022-09-09T17:41:52;11.45;;;4.70;;
64820;SDS011;51256;55.654;37.264;2022-09-09T17:44:18;13.27;;;5.82;;
64820;SDS011;51256;55.654;37.264;2022-09-09T17:46:44;15.93;;;6.93;;
64820;SDS011;51256;55.654;37.264;2022-09-09T17:49:14;22.52;;;8.30;;